This is the latest recevied weather packets stored in our database for station/object KO4DYK. If no packets are shown the sender has not sent any weather packets the latest 1 day(s).
| Time | Temp. | Humidity | Pressure | Rain* | Wind** | Luminosity | Snow |
|---|---|---|---|---|---|---|---|
| 1778033450 | 20° C | 95% | 1012.2 hPa | 0 mm | - | 0 W/m² | - |
| 1778033147 | 20° C | 95% | 1012.5 hPa | 0 mm | - | 0 W/m² | - |
| 1778032542 | 20° C | 95% | 1012.1 hPa | 0 mm | - | 0 W/m² | - |
| 1778032239 | 20° C | 95% | 1012.1 hPa | 0 mm | - | 0 W/m² | - |
| 1778031632 | 20° C | 95% | 1011.8 hPa | 0 mm | - | 0 W/m² | - |
| 1778031330 | 20° C | 95% | 1011.8 hPa | 0 mm | - | 0 W/m² | - |
| 1778030723 | 20° C | 95% | 1011.9 hPa | 0 mm | - | 0 W/m² | - |
| 1778030420 | 20° C | 95% | 1011.8 hPa | 0 mm | - | 0 W/m² | - |
| 1778030118 | 20° C | 95% | 1011.6 hPa | 0 mm | - | 0 W/m² | - |
| 1778029814 | 20° C | 95% | 1011.6 hPa | 0 mm | - | 0 W/m² | - |
| 1778028907 | 20° C | 96% | 1011.8 hPa | 0 mm | - | 0 W/m² | - |
| 1778028300 | 20° C | 96% | 1011.9 hPa | 0 mm | - | 0 W/m² | - |
| 1778027996 | 20° C | 96% | 1011.6 hPa | 0 mm | - | 0 W/m² | - |
| 1778027692 | 20° C | 96% | 1011.7 hPa | 0 mm | - | 0 W/m² | - |
| 1778027085 | 19.44° C | 97% | 1011.4 hPa | 0 mm | - | 7 W/m² | - |
| 1778026780 | 19.44° C | 97% | 1011.4 hPa | 0 mm | - | 8 W/m² | - |
| 1778026478 | 19.44° C | 97% | 1011.4 hPa | 0 mm | - | 4 W/m² | - |
| 1778026175 | 19.44° C | 97% | 1011.4 hPa | 0 mm | - | 4 W/m² | - |
| 1778024964 | 19.44° C | 97% | 1011.6 hPa | 0 mm | - | 28 W/m² | - |
| 1778024358 | 19.44° C | 97% | 1011.8 hPa | 0 mm | - | 36 W/m² | - |
| 1778022845 | 18.89° C | 98% | 1012 hPa | 0 mm | - | 40 W/m² | - |
| 1778021634 | 18.89° C | 99% | 1011.5 hPa | 0 mm | - | 111 W/m² | - |
| 1778021329 | 18.89° C | 99% | 1011.4 hPa | 0 mm | - | 124 W/m² | - |
| 1778021027 | 18.89° C | 99% | 1011.6 hPa | 0 mm | - | 131 W/m² | - |
| 1778014362 | 17.78° C | 99% | 1012.8 hPa | 0 mm | - | 78 W/m² | - |
* Rain latest hour (hover to see other rain measurements)
** Current wind speed in m/s (hover to see current wind gust speed)